Time;durP1;ratioP1;P1;durP2;ratioP2;P2;SDS_P1;SDS_P2;PMS_P1;PMS_P2;Temp;Humidity;BMP_temperature;BMP_pressure;BME280_temperature;BME280_humidity;BME280_pressure;Samples;Min_cycle;Max_cycle;Signal;HPM_P1;HPM_P2
2023/06/29 00:02:24;;;;;;;3.33;3.03;;;23.50;99.90;;;;;;5084249;28;20048;-75
2023/06/29 00:04:52;;;;;;;3.10;2.88;;;23.50;99.90;;;;;;5082360;28;20466;-75
2023/06/29 00:07:17;;;;;;;4.32;3.00;;;23.50;99.90;;;;;;5081794;28;20047;-74
2023/06/29 00:09:43;;;;;;;2.78;2.58;;;23.50;99.90;;;;;;5083316;28;20012;-74
2023/06/29 00:12:09;;;;;;;2.88;2.60;;;23.40;99.90;;;;;;5084047;28;20485;-74
2023/06/29 00:14:35;;;;;;;3.70;3.22;;;23.40;99.90;;;;;;5085462;28;20081;-74
2023/06/29 00:17:01;;;;;;;5.68;2.70;;;23.30;99.90;;;;;;5080853;28;20051;-74
2023/06/29 00:19:26;;;;;;;2.72;2.53;;;23.30;99.90;;;;;;5083496;28;20474;-74
2023/06/29 00:21:52;;;;;;;2.17;2.08;;;23.30;99.90;;;;;;5080491;28;20027;-74
2023/06/29 00:24:18;;;;;;;3.90;2.67;;;23.30;99.90;;;;;;5082521;28;20013;-74
2023/06/29 00:26:44;;;;;;;3.17;2.97;;;23.30;99.90;;;;;;5085491;28;20016;-74
2023/06/29 00:29:09;;;;;;;5.13;2.92;;;23.30;99.90;;;;;;5086680;28;20064;-74
2023/06/29 00:31:35;;;;;;;6.03;2.88;;;23.30;99.90;;;;;;5088020;28;20066;-74
2023/06/29 00:34:01;;;;;;;3.08;2.72;;;23.30;99.90;;;;;;5064357;28;20166;-74
2023/06/29 00:36:26;;;;;;;3.22;2.42;;;23.30;99.90;;;;;;5082059;28;20378;-74
2023/06/29 00:38:52;;;;;;;2.90;2.70;;;23.20;99.90;;;;;;5083746;28;20026;-74
2023/06/29 00:41:18;;;;;;;3.17;2.97;;;23.10;99.90;;;;;;5087649;28;20049;-75
2023/06/29 00:43:45;;;;;;;3.20;2.80;;;23.10;99.90;;;;;;5081807;28;20100;-75
2023/06/29 00:46:15;;;;;;;2.85;2.42;;;23.10;99.90;;;;;;5079190;28;20024;-75
2023/06/29 00:48:41;;;;;;;2.50;2.40;;;23.10;99.90;;;;;;5081725;28;20052;-75
2023/06/29 00:51:10;;;;;;;3.63;3.08;;;23.20;99.90;;;;;;5084466;28;20059;-75
2023/06/29 00:53:37;;;;;;;2.67;2.53;;;23.20;99.90;;;;;;5083352;28;20020;-75
2023/06/29 00:56:03;;;;;;;2.92;2.65;;;23.20;99.90;;;;;;5079609;28;20107;-75
2023/06/29 00:58:29;;;;;;;2.35;2.25;;;23.20;99.90;;;;;;5083913;28;20020;-74
2023/06/29 01:00:55;;;;;;;3.03;2.38;;;23.20;99.90;;;;;;5081719;28;20437;-75
2023/06/29 01:03:22;;;;;;;2.65;2.05;;;23.10;99.90;;;;;;5084790;28;20046;-74
2023/06/29 01:05:53;;;;;;;8.05;2.58;;;23.20;99.90;;;;;;5084931;28;20028;-75
2023/06/29 01:08:26;;;;;;;4.05;2.40;;;23.10;99.90;;;;;;5084607;28;20386;-74
2023/06/29 01:10:53;;;;;;;3.63;2.45;;;23.00;99.90;;;;;;5081628;28;20827;-74
2023/06/29 01:13:19;;;;;;;2.33;2.15;;;22.90;99.90;;;;;;5078870;28;20020;-75
2023/06/29 01:15:47;;;;;;;4.70;2.80;;;22.90;99.90;;;;;;5083902;28;20020;-74
2023/06/29 01:18:16;;;;;;;4.25;1.90;;;22.90;99.90;;;;;;5081577;28;20474;-74
2023/06/29 01:20:44;;;;;;;2.28;2.08;;;22.90;99.90;;;;;;5086190;28;20046;-74
2023/06/29 01:23:18;;;;;;;1.98;1.80;;;22.80;99.90;;;;;;5062760;28;20035;-74
2023/06/29 01:25:45;;;;;;;2.25;2.15;;;22.90;99.90;;;;;;5081826;28;20024;-74
2023/06/29 01:28:11;;;;;;;2.17;1.95;;;22.90;99.90;;;;;;5083392;28;20028;-74
2023/06/29 01:30:39;;;;;;;2.17;1.98;;;22.80;99.90;;;;;;5067350;28;20024;-74
2023/06/29 01:33:07;;;;;;;2.45;2.00;;;22.80;99.90;;;;;;5085373;28;20023;-74
2023/06/29 01:35:33;;;;;;;1.67;1.58;;;22.80;99.90;;;;;;5079203;28;20721;-74
2023/06/29 01:38:01;;;;;;;2.45;1.60;;;22.80;99.90;;;;;;5087018;28;20012;-74
2023/06/29 01:40:29;;;;;;;4.45;1.90;;;22.70;99.90;;;;;;5080819;28;20028;-74
2023/06/29 01:42:56;;;;;;;3.47;2.05;;;22.70;99.90;;;;;;5084312;28;20021;-75
2023/06/29 01:45:23;;;;;;;4.47;2.20;;;22.80;99.90;;;;;;5083901;28;20547;-74
2023/06/29 01:47:49;;;;;;;1.75;1.65;;;22.80;99.90;;;;;;5078657;28;20028;-74
2023/06/29 01:50:19;;;;;;;2.08;1.98;;;22.70;99.90;;;;;;5082468;28;20036;-74
2023/06/29 01:52:45;;;;;;;2.63;1.88;;;22.70;99.90;;;;;;5080487;28;20021;-74
2023/06/29 01:55:11;;;;;;;2.17;1.80;;;22.70;99.90;;;;;;5080176;28;20028;-74
2023/06/29 01:57:37;;;;;;;3.05;1.85;;;22.70;99.90;;;;;;5064609;28;20097;-74
2023/06/29 02:00:03;;;;;;;1.80;1.70;;;22.70;99.90;;;;;;5061788;28;20048;-74
2023/06/29 02:02:30;;;;;;;1.30;1.30;;;22.70;99.90;;;;;;5079961;28;20043;-74
2023/06/29 02:04:56;;;;;;;1.60;1.50;;;22.70;99.90;;;;;;5085079;28;20109;-74
2023/06/29 02:07:22;;;;;;;3.25;1.83;;;22.70;99.90;;;;;;5081639;28;20059;-75
2023/06/29 02:09:47;;;;;;;4.72;1.90;;;22.70;99.90;;;;;;5077879;28;20031;-74
2023/06/29 02:12:13;;;;;;;1.83;1.50;;;22.60;99.90;;;;;;5066511;28;20424;-74
2023/06/29 02:14:39;;;;;;;3.00;1.67;;;22.60;99.90;;;;;;5084079;28;20052;-74
2023/06/29 02:17:05;;;;;;;1.58;1.48;;;22.50;99.90;;;;;;5080487;28;20390;-74
2023/06/29 02:19:30;;;;;;;2.65;1.42;;;22.50;99.90;;;;;;5079964;28;20028;-74
2023/06/29 02:21:56;;;;;;;1.90;1.63;;;22.40;99.90;;;;;;5081793;28;20025;-74
2023/06/29 02:24:23;;;;;;;2.05;1.52;;;22.40;99.90;;;;;;5080025;28;20016;-74
2023/06/29 02:26:49;;;;;;;1.55;1.42;;;22.40;99.90;;;;;;5065324;28;20055;-74
2023/06/29 02:29:14;;;;;;;1.77;1.60;;;22.30;99.90;;;;;;5082452;28;20067;-75
2023/06/29 02:31:40;;;;;;;1.50;1.40;;;22.30;99.90;;;;;;5076852;28;20074;-74
2023/06/29 02:34:06;;;;;;;1.58;1.48;;;22.30;99.90;;;;;;5083981;28;20031;-74
2023/06/29 02:36:31;;;;;;;2.65;1.60;;;22.30;99.90;;;;;;5080525;28;20386;-74
2023/06/29 02:38:57;;;;;;;3.58;1.38;;;22.30;99.90;;;;;;5083528;28;20470;-74
2023/06/29 02:41:23;;;;;;;5.28;1.27;;;22.30;99.90;;;;;;5082942;28;20020;-74
2023/06/29 02:43:49;;;;;;;1.92;1.15;;;22.20;99.90;;;;;;5081325;28;20082;-74
2023/06/29 02:46:15;;;;;;;2.10;1.40;;;22.30;99.90;;;;;;5083577;28;20095;-74
2023/06/29 02:48:41;;;;;;;2.13;1.42;;;22.20;99.90;;;;;;5080051;28;20485;-74
2023/06/29 02:51:07;;;;;;;1.95;1.17;;;22.10;99.90;;;;;;5079452;28;20024;-74
2023/06/29 02:53:32;;;;;;;1.52;1.35;;;22.10;99.90;;;;;;5084025;28;20036;-75
2023/06/29 02:55:58;;;;;;;1.45;1.35;;;22.00;99.90;;;;;;5082668;28;20051;-75
2023/06/29 02:58:24;;;;;;;1.88;1.13;;;22.00;99.90;;;;;;5082326;28;20016;-74
2023/06/29 03:00:50;;;;;;;1.25;1.15;;;22.10;99.90;;;;;;5077552;28;20546;-74
2023/06/29 03:03:15;;;;;;;2.47;1.15;;;22.10;99.90;;;;;;5078951;28;20089;-74
2023/06/29 03:05:41;;;;;;;1.48;1.38;;;22.10;99.90;;;;;;5076616;28;20024;-74
2023/06/29 03:08:07;;;;;;;3.38;1.20;;;22.10;99.90;;;;;;5081620;28;20386;-74
2023/06/29 03:10:33;;;;;;;1.50;1.38;;;22.10;99.90;;;;;;5079569;28;20031;-74
2023/06/29 03:12:58;;;;;;;1.40;1.30;;;22.10;99.90;;;;;;5079025;28;20434;-74
2023/06/29 03:15:24;;;;;;;1.17;1.17;;;22.20;99.90;;;;;;5078650;28;20020;-74
2023/06/29 03:17:50;;;;;;;1.85;1.30;;;22.20;99.90;;;;;;5062580;28;20111;-74
2023/06/29 03:20:16;;;;;;;1.30;1.15;;;22.10;99.90;;;;;;5083080;28;20086;-74
2023/06/29 03:22:42;;;;;;;0.98;0.98;;;22.10;99.90;;;;;;5065659;28;20028;-74
2023/06/29 03:25:10;;;;;;;1.58;1.45;;;22.10;99.90;;;;;;5085600;28;20069;-74
2023/06/29 03:27:37;;;;;;;2.15;1.15;;;22.00;99.90;;;;;;5066284;28;20107;-74
2023/06/29 03:30:04;;;;;;;1.50;1.17;;;22.00;99.90;;;;;;5084605;28;20069;-74
2023/06/29 03:32:29;;;;;;;0.93;0.90;;;21.90;99.90;;;;;;5067862;28;20512;-74
2023/06/29 03:34:55;;;;;;;0.98;0.98;;;22.00;99.90;;;;;;5083061;28;20025;-74
2023/06/29 03:37:21;;;;;;;1.48;1.10;;;22.00;99.90;;;;;;5086645;28;20020;-74
2023/06/29 03:39:47;;;;;;;2.58;0.90;;;22.10;99.90;;;;;;5066106;28;20032;-75
2023/06/29 03:42:12;;;;;;;1.73;1.08;;;22.10;99.90;;;;;;5085418;28;20020;-74
2023/06/29 03:44:39;;;;;;;1.23;1.08;;;22.10;99.90;;;;;;5084218;28;20025;-74
2023/06/29 03:47:06;;;;;;;0.95;0.88;;;22.10;99.90;;;;;;5086503;28;20020;-74
2023/06/29 03:49:32;;;;;;;2.22;1.00;;;22.00;99.90;;;;;;5083971;28;20026;-74
2023/06/29 03:51:58;;;;;;;5.30;0.90;;;22.00;99.90;;;;;;5068323;28;20035;-74
2023/06/29 03:54:24;;;;;;;0.70;0.70;;;22.00;99.90;;;;;;5062448;28;20119;-74
2023/06/29 03:56:50;;;;;;;1.30;1.20;;;22.00;99.90;;;;;;5081604;28;20054;-74
2023/06/29 03:59:16;;;;;;;1.70;1.17;;;22.00;99.90;;;;;;5085607;28;20019;-74
2023/06/29 04:01:41;;;;;;;1.30;1.20;;;22.10;99.90;;;;;;5086800;28;20044;-74
2023/06/29 04:04:07;;;;;;;1.63;1.13;;;22.20;99.90;;;;;;5085967;28;20390;-74
2023/06/29 04:06:33;;;;;;;3.13;1.00;;;22.20;99.90;;;;;;5086174;28;20021;-74
2023/06/29 04:08:59;;;;;;;1.20;0.80;;;22.20;99.90;;;;;;5084460;28;20111;-74
2023/06/29 04:11:24;;;;;;;1.23;1.05;;;22.20;99.90;;;;;;5086693;28;20020;-74
2023/06/29 04:13:50;;;;;;;2.20;1.13;;;22.20;99.90;;;;;;5085744;28;20020;-74
2023/06/29 04:16:16;;;;;;;1.92;0.98;;;22.20;99.90;;;;;;5084271;28;20067;-74
2023/06/29 04:18:41;;;;;;;1.95;0.80;;;22.20;99.90;;;;;;5081944;28;20017;-74
2023/06/29 04:21:07;;;;;;;0.90;0.77;;;22.30;99.90;;;;;;5069563;28;20471;-74
2023/06/29 04:23:33;;;;;;;1.23;1.02;;;22.30;99.90;;;;;;5081134;28;20425;-74
2023/06/29 04:26:02;;;;;;;3.55;1.10;;;22.30;99.90;;;;;;5082146;28;20028;-74
2023/06/29 04:28:35;;;;;;;1.27;0.82;;;22.30;99.90;;;;;;5083544;28;20024;-74
2023/06/29 04:31:02;;;;;;;2.05;1.02;;;22.30;99.90;;;;;;5081368;28;20032;-74
2023/06/29 04:33:28;;;;;;;4.20;1.17;;;22.30;99.90;;;;;;5083234;28;20544;-74
2023/06/29 04:35:54;;;;;;;0.73;0.73;;;22.20;99.90;;;;;;5083445;28;20032;-74
2023/06/29 04:38:25;;;;;;;2.83;0.80;;;22.20;99.90;;;;;;5084943;28;20028;-74
2023/06/29 04:41:03;;;;;;;1.05;0.80;;;22.30;99.90;;;;;;5068014;28;20027;-74
2023/06/29 04:43:32;;;;;;;3.55;1.33;;;22.30;99.90;;;;;;5084909;28;20050;-74
2023/06/29 04:46:00;;;;;;;0.95;0.68;;;22.40;99.90;;;;;;5082778;28;20032;-74
2023/06/29 04:48:32;;;;;;;1.80;0.98;;;22.40;99.90;;;;;;5086050;28;20386;-74
2023/06/29 04:51:02;;;;;;;;;;;22.40;99.90;;;;;;5064613;28;20086;-74
2023/06/29 04:53:28;;;;;;;2.20;0.90;;;22.40;99.90;;;;;;5082389;28;19927;-74
2023/06/29 04:55:55;;;;;;;2.75;1.00;;;22.40;99.90;;;;;;5083672;28;20115;-75
2023/06/29 04:58:20;;;;;;;1.83;0.95;;;22.40;99.90;;;;;;5084018;28;20089;-74
2023/06/29 05:00:46;;;;;;;0.80;0.70;;;22.40;99.90;;;;;;5079634;28;20024;-75
2023/06/29 05:03:12;;;;;;;1.08;1.00;;;22.40;99.90;;;;;;5081589;28;20382;-74
2023/06/29 05:05:37;;;;;;;1.15;0.80;;;22.30;99.90;;;;;;5084708;28;20032;-74
2023/06/29 05:08:03;;;;;;;3.47;0.82;;;22.30;99.90;;;;;;5077455;28;20108;-75
2023/06/29 05:10:29;;;;;;;1.38;0.90;;;22.30;99.90;;;;;;5078985;28;20111;-75
2023/06/29 05:12:54;;;;;;;0.55;0.55;;;22.40;99.90;;;;;;5082025;28;20048;-74
2023/06/29 05:15:20;;;;;;;2.88;1.00;;;22.40;99.90;;;;;;5081151;28;20046;-74
2023/06/29 05:17:46;;;;;;;4.32;1.35;;;22.40;99.90;;;;;;5083085;28;20027;-74
2023/06/29 05:20:17;;;;;;;0.65;0.65;;;22.40;99.90;;;;;;5064645;28;20374;-74
2023/06/29 05:22:43;;;;;;;1.42;1.00;;;22.50;99.90;;;;;;5084304;28;20024;-74
2023/06/29 05:25:09;;;;;;;0.80;0.80;;;22.40;99.90;;;;;;5081060;28;20029;-74
2023/06/29 05:27:35;;;;;;;2.28;0.80;;;22.50;99.90;;;;;;5085416;28;20059;-74
2023/06/29 05:30:00;;;;;;;0.85;0.82;;;22.60;99.90;;;;;;5080914;28;20048;-75
2023/06/29 05:32:27;;;;;;;0.85;0.85;;;22.60;99.90;;;;;;5084008;28;20039;-74
2023/06/29 05:34:52;;;;;;;2.83;1.00;;;22.70;99.90;;;;;;5078420;28;20478;-74
2023/06/29 05:37:18;;;;;;;3.00;1.00;;;22.70;99.90;;;;;;5084021;28;20047;-74
2023/06/29 05:39:44;;;;;;;1.70;1.10;;;22.80;99.90;;;;;;5081962;28;20545;-74
2023/06/29 05:42:09;;;;;;;0.93;0.80;;;22.80;99.90;;;;;;5081077;28;20024;-74
2023/06/29 05:44:35;;;;;;;3.75;0.98;;;22.80;99.90;;;;;;5059238;28;20012;-74
2023/06/29 05:47:01;;;;;;;1.15;0.95;;;22.80;99.90;;;;;;5080337;28;20055;-74
2023/06/29 05:49:30;;;;;;;1.13;1.02;;;22.80;99.90;;;;;;5080916;28;20029;-74
2023/06/29 05:51:55;;;;;;;0.68;0.68;;;22.90;99.90;;;;;;5082743;28;20107;-74
2023/06/29 05:54:21;;;;;;;1.75;0.85;;;22.90;99.90;;;;;;5081254;28;20108;-74
2023/06/29 05:56:47;;;;;;;5.22;1.10;;;22.90;99.90;;;;;;5061684;28;20024;-74
2023/06/29 05:59:12;;;;;;;3.53;1.00;;;23.00;99.90;;;;;;5083861;28;20073;-74
2023/06/29 06:01:38;;;;;;;4.10;2.08;;;23.10;99.90;;;;;;5080297;28;20044;-74
2023/06/29 06:04:05;;;;;;;1.15;1.10;;;23.10;99.90;;;;;;5081144;28;21927;-74
2023/06/29 06:06:32;;;;;;;1.55;0.88;;;23.20;99.90;;;;;;5081470;28;20530;-74
2023/06/29 06:08:58;;;;;;;2.35;1.15;;;23.20;99.90;;;;;;5085256;28;20034;-74
2023/06/29 06:11:24;;;;;;;2.78;1.00;;;23.30;99.90;;;;;;5080713;28;20025;-74
2023/06/29 06:13:50;;;;;;;3.35;1.13;;;23.40;99.90;;;;;;5084266;28;20046;-74
2023/06/29 06:16:16;;;;;;;1.17;1.10;;;23.40;99.90;;;;;;5084270;28;20103;-75
2023/06/29 06:18:41;;;;;;;2.15;0.80;;;23.50;99.90;;;;;;5080749;28;20023;-74
2023/06/29 06:21:07;;;;;;;1.70;1.00;;;23.60;99.90;;;;;;5080665;28;20044;-74
2023/06/29 06:23:33;;;;;;;0.80;0.80;;;23.60;99.90;;;;;;5085360;28;20052;-74
2023/06/29 06:25:59;;;;;;;1.00;1.00;;;23.60;99.90;;;;;;5085881;28;20452;-74
2023/06/29 06:28:25;;;;;;;2.35;1.20;;;23.70;99.90;;;;;;5078903;28;20043;-74
2023/06/29 06:30:51;;;;;;;7.93;1.10;;;23.80;99.90;;;;;;5078861;28;20107;-74
2023/06/29 06:33:16;;;;;;;1.20;1.10;;;23.80;99.90;;;;;;5079846;28;20140;-74
2023/06/29 06:35:43;;;;;;;0.82;0.77;;;23.90;99.90;;;;;;5083045;28;20027;-74
2023/06/29 06:38:09;;;;;;;1.95;0.80;;;23.90;99.90;;;;;;5081388;28;20429;-74
2023/06/29 06:40:35;;;;;;;4.40;1.77;;;23.90;99.90;;;;;;5080983;28;20020;-74
2023/06/29 06:43:00;;;;;;;1.15;0.90;;;23.90;99.90;;;;;;5083125;28;20400;-74
2023/06/29 06:45:26;;;;;;;1.52;0.90;;;23.90;99.90;;;;;;5078714;28;20024;-75
2023/06/29 06:47:52;;;;;;;1.20;1.20;;;24.00;99.90;;;;;;5082530;28;20486;-74
2023/06/29 06:50:17;;;;;;;0.95;0.95;;;24.10;99.90;;;;;;5082438;28;20013;-74
2023/06/29 06:52:43;;;;;;;2.40;1.40;;;24.10;99.90;;;;;;5082437;28;20115;-74
2023/06/29 06:55:10;;;;;;;2.95;0.95;;;24.20;99.90;;;;;;5080683;28;20077;-74
2023/06/29 06:57:36;;;;;;;1.15;1.15;;;24.20;99.90;;;;;;5085458;28;20020;-74
2023/06/29 07:00:03;;;;;;;1.45;1.10;;;24.30;99.90;;;;;;5081361;28;20029;-74
2023/06/29 07:02:28;;;;;;;4.57;1.30;;;24.30;99.90;;;;;;5084719;28;20055;-74
2023/06/29 07:04:54;;;;;;;2.40;1.23;;;24.40;99.90;;;;;;5080819;28;20025;-74
2023/06/29 07:07:20;;;;;;;2.08;1.45;;;24.50;99.90;;;;;;5079762;28;20028;-74
2023/06/29 07:09:45;;;;;;;1.67;1.25;;;24.50;99.90;;;;;;5082543;28;20024;-74
2023/06/29 07:12:11;;;;;;;2.03;1.20;;;24.50;99.70;;;;;;5083439;28;20113;-74
2023/06/29 07:14:37;;;;;;;2.53;1.42;;;24.60;99.80;;;;;;5084134;28;20016;-74
2023/06/29 07:17:06;;;;;;;1.65;1.55;;;24.60;99.90;;;;;;5084186;28;20024;-74
2023/06/29 07:19:32;;;;;;;1.55;1.13;;;24.70;99.90;;;;;;5087513;28;20031;-74
2023/06/29 07:21:58;;;;;;;2.47;1.40;;;24.70;99.20;;;;;;5080143;28;20028;-74
2023/06/29 07:24:23;;;;;;;1.10;1.00;;;24.80;99.90;;;;;;5085293;28;20016;-75
2023/06/29 07:26:49;;;;;;;2.90;1.50;;;24.80;99.90;;;;;;5085361;28;20036;-74
2023/06/29 07:29:15;;;;;;;4.82;1.50;;;24.80;99.90;;;;;;5089936;28;20020;-74
2023/06/29 07:31:41;;;;;;;1.55;1.45;;;24.90;99.90;;;;;;5083007;28;20093;-74
2023/06/29 07:34:06;;;;;;;1.83;1.70;;;24.90;99.90;;;;;;5091996;28;20036;-74
2023/06/29 07:36:34;;;;;;;1.67;1.52;;;25.00;99.90;;;;;;5083614;28;20032;-74
2023/06/29 07:39:00;;;;;;;1.15;1.10;;;25.10;99.90;;;;;;5085050;28;20024;-74
2023/06/29 07:41:26;;;;;;;1.40;1.30;;;25.10;99.90;;;;;;5080369;28;20108;-74
2023/06/29 07:43:56;;;;;;;1.67;1.58;;;25.20;99.90;;;;;;5083858;28;20017;-74
2023/06/29 07:46:22;;;;;;;2.83;1.48;;;25.20;99.90;;;;;;5082585;28;20040;-74
2023/06/29 07:48:49;;;;;;;1.83;1.30;;;25.20;99.90;;;;;;5085756;28;20051;-74
2023/06/29 07:51:18;;;;;;;4.85;1.40;;;25.20;99.80;;;;;;5088311;28;20059;-74
2023/06/29 07:53:44;;;;;;;2.33;1.30;;;25.20;99.60;;;;;;5081284;28;20110;-74
2023/06/29 07:56:10;;;;;;;3.67;1.50;;;25.20;98.10;;;;;;5086219;28;20031;-74
2023/06/29 07:58:36;;;;;;;2.03;1.67;;;25.20;96.70;;;;;;5085501;28;20017;-74
2023/06/29 08:01:02;;;;;;;3.75;1.13;;;25.10;95.90;;;;;;5083490;28;20033;-74
2023/06/29 08:03:28;;;;;;;2.78;1.30;;;25.20;95.60;;;;;;5081770;28;20466;-74
2023/06/29 08:05:54;;;;;;;1.90;1.52;;;25.30;96.20;;;;;;5083011;28;20032;-74
2023/06/29 08:08:23;;;;;;;2.50;1.58;;;25.30;96.90;;;;;;5084756;28;20031;-74
2023/06/29 08:10:49;;;;;;;1.30;1.30;;;25.40;97.10;;;;;;5079774;28;20543;-74
2023/06/29 08:13:15;;;;;;;2.78;1.48;;;25.60;98.50;;;;;;5085662;28;20053;-74
2023/06/29 08:15:42;;;;;;;2.38;1.67;;;25.60;98.10;;;;;;5081827;28;20089;-74
2023/06/29 08:18:07;;;;;;;2.03;1.60;;;25.70;96.30;;;;;;5084866;28;20584;-74
2023/06/29 08:20:33;;;;;;;1.85;1.73;;;25.70;95.70;;;;;;5082508;28;20125;-74
2023/06/29 08:22:59;;;;;;;3.35;1.83;;;25.70;94.90;;;;;;5082199;28;20055;-74
2023/06/29 08:25:25;;;;;;;3.85;1.60;;;25.70;95.00;;;;;;5086813;28;20025;-74
2023/06/29 08:27:51;;;;;;;1.98;1.35;;;25.70;95.50;;;;;;5066143;28;20024;-74
2023/06/29 08:30:16;;;;;;;2.97;1.45;;;25.60;94.20;;;;;;5080775;28;20034;-74
2023/06/29 08:32:43;;;;;;;2.05;1.50;;;25.80;95.60;;;;;;5081676;28;20047;-74
2023/06/29 08:35:09;;;;;;;1.67;1.45;;;26.00;98.10;;;;;;5074745;28;20074;-74
2023/06/29 08:37:35;;;;;;;2.55;1.40;;;26.00;96.20;;;;;;5085629;28;20024;-74
2023/06/29 08:40:04;;;;;;;2.17;1.63;;;26.10;96.80;;;;;;5084953;28;20031;-74
2023/06/29 08:42:30;;;;;;;2.22;1.65;;;26.00;94.70;;;;;;5081474;28;20074;-74
2023/06/29 08:44:56;;;;;;;2.55;1.20;;;26.00;95.80;;;;;;5085297;28;20024;-74
2023/06/29 08:47:28;;;;;;;3.05;1.20;;;26.10;95.40;;;;;;5081585;28;20132;-74
2023/06/29 08:49:57;;;;;;;1.42;1.33;;;26.20;95.30;;;;;;5085088;28;20429;-74
2023/06/29 08:52:28;;;;;;;2.70;1.30;;;26.20;93.90;;;;;;5081707;28;20020;-74
2023/06/29 08:54:55;;;;;;;1.10;1.10;;;26.20;95.30;;;;;;5081768;28;20024;-74
2023/06/29 08:57:21;;;;;;;4.75;1.27;;;26.20;95.70;;;;;;5083538;28;20012;-74
2023/06/29 08:59:49;;;;;;;3.15;1.23;;;26.20;95.90;;;;;;5082353;28;20086;-74
2023/06/29 09:02:15;;;;;;;1.48;1.38;;;26.30;95.90;;;;;;5079259;28;20044;-74
2023/06/29 09:04:44;;;;;;;1.27;1.15;;;26.30;94.90;;;;;;5080881;28;20024;-74
2023/06/29 09:07:10;;;;;;;1.98;1.15;;;26.30;94.90;;;;;;5081178;28;20024;-74
2023/06/29 09:09:35;;;;;;;1.10;1.10;;;26.40;93.90;;;;;;5078494;28;20025;-74
2023/06/29 09:12:02;;;;;;;1.30;1.13;;;26.40;93.80;;;;;;5080999;28;20028;-74
2023/06/29 09:14:35;;;;;;;1.38;1.27;;;26.40;93.10;;;;;;5081298;28;20052;-74
2023/06/29 09:17:01;;;;;;;2.53;1.27;;;26.50;94.30;;;;;;5080759;28;20024;-74
2023/06/29 09:19:29;;;;;;;1.42;1.30;;;26.70;92.90;;;;;;5083259;28;20083;-74
2023/06/29 09:21:55;;;;;;;2.78;1.15;;;26.70;92.30;;;;;;5079955;28;20466;-74
2023/06/29 09:24:21;;;;;;;3.60;1.52;;;26.70;92.20;;;;;;5086572;28;20020;-74
2023/06/29 09:26:53;;;;;;;1.73;1.52;;;26.60;90.80;;;;;;5083062;28;20070;-74
2023/06/29 09:29:23;;;;;;;1.40;1.30;;;26.60;91.20;;;;;;5064109;28;20124;-74
2023/06/29 09:31:59;;;;;;;2.90;1.17;;;26.50;90.60;;;;;;5068629;28;20498;-74
2023/06/29 09:34:26;;;;;;;1.27;1.17;;;26.60;91.40;;;;;;5077624;28;20429;-74
2023/06/29 09:36:53;;;;;;;1.00;0.90;;;26.60;90.70;;;;;;5082067;28;20047;-74
2023/06/29 09:39:19;;;;;;;1.52;1.42;;;26.60;90.50;;;;;;5081998;28;20024;-74
2023/06/29 09:41:53;;;;;;;2.40;1.40;;;26.60;90.50;;;;;;5065736;28;20031;-74
2023/06/29 09:44:19;;;;;;;1.50;1.40;;;26.60;90.20;;;;;;5083365;28;20390;-74
2023/06/29 09:46:46;;;;;;;2.88;1.25;;;26.70;90.90;;;;;;5082661;28;20055;-74
2023/06/29 09:49:12;;;;;;;1.33;1.23;;;26.70;91.70;;;;;;5083124;28;20513;-74
2023/06/29 09:51:38;;;;;;;2.42;1.40;;;26.90;91.10;;;;;;5084408;28;20048;-74
2023/06/29 09:54:04;;;;;;;4.10;1.33;;;27.00;92.00;;;;;;5080842;28;20038;-74
2023/06/29 09:56:33;;;;;;;4.93;1.48;;;27.00;86.50;;;;;;5061730;28;20027;-74
2023/06/29 09:59:01;;;;;;;2.22;1.73;;;26.90;87.70;;;;;;5081823;28;20017;-74
2023/06/29 10:01:28;;;;;;;1.40;1.30;;;27.00;91.40;;;;;;5080067;28;20040;-74
2023/06/29 10:03:55;;;;;;;1.05;1.00;;;27.10;90.50;;;;;;5080733;28;20398;-74
2023/06/29 10:06:31;;;;;;;1.40;1.30;;;27.20;89.40;;;;;;5086799;28;20539;-74
2023/06/29 10:08:58;;;;;;;2.95;1.38;;;27.20;90.20;;;;;;5081487;28;20028;-74
2023/06/29 10:11:31;;;;;;;1.50;1.40;;;27.30;89.60;;;;;;5083700;28;20044;-74
2023/06/29 10:14:02;;;;;;;1.23;1.23;;;27.40;86.80;;;;;;5068903;28;20500;-74
2023/06/29 10:16:33;;;;;;;1.60;1.50;;;27.50;90.10;;;;;;5084665;28;20028;-75
2023/06/29 10:19:12;;;;;;;1.02;1.00;;;27.60;87.40;;;;;;5078624;28;20024;-74
2023/06/29 10:21:38;;;;;;;1.50;1.40;;;27.80;89.10;;;;;;5079948;28;20202;-74
2023/06/29 10:24:04;;;;;;;1.33;1.15;;;27.90;87.70;;;;;;5079428;28;20028;-74
2023/06/29 10:26:30;;;;;;;2.65;1.42;;;27.90;81.60;;;;;;5065217;28;20032;-74
2023/06/29 10:28:56;;;;;;;1.20;1.20;;;27.90;80.90;;;;;;5083089;28;20035;-74
2023/06/29 10:31:32;;;;;;;3.42;1.30;;;28.00;80.10;;;;;;5083555;28;20034;-74
2023/06/29 10:33:58;;;;;;;2.20;1.40;;;28.10;79.30;;;;;;5078293;28;20048;-74
2023/06/29 10:36:24;;;;;;;1.40;1.40;;;28.10;80.80;;;;;;5079451;28;20063;-74
2023/06/29 10:38:50;;;;;;;1.25;1.15;;;28.00;82.50;;;;;;5080083;28;20013;-74
2023/06/29 10:41:28;;;;;;;2.70;1.08;;;28.20;84.50;;;;;;5086589;28;20077;-74
2023/06/29 10:44:04;;;;;;;3.38;1.40;;;28.30;85.10;;;;;;5081207;28;20025;-74
2023/06/29 10:46:49;;;;;;;1.38;1.27;;;28.20;82.60;;;;;;5086125;28;20024;-74
2023/06/29 10:49:25;;;;;;;1.30;1.20;;;28.20;81.00;;;;;;5083712;28;20029;-75
2023/06/29 10:51:53;;;;;;;1.30;1.20;;;28.30;79.80;;;;;;5083210;28;20493;-74
2023/06/29 10:54:25;;;;;;;1.30;1.20;;;28.40;80.60;;;;;;5080188;28;20020;-74
2023/06/29 10:56:56;;;;;;;2.15;1.77;;;28.60;80.70;;;;;;5080858;28;20032;-74
2023/06/29 10:59:22;;;;;;;;;;;28.80;78.70;;;;;;5080525;28;20077;-74
2023/06/29 11:01:50;;;;;;;1.70;1.60;;;28.80;73.80;;;;;;5064044;28;19919;-74
2023/06/29 11:04:16;;;;;;;2.33;1.40;;;28.70;74.90;;;;;;5085178;28;20107;-74
2023/06/29 11:06:42;;;;;;;3.30;1.77;;;28.80;74.60;;;;;;5082705;28;20446;-74
2023/06/29 11:09:12;;;;;;;2.60;1.60;;;28.90;72.80;;;;;;5082832;28;20024;-74
2023/06/29 11:11:38;;;;;;;1.60;1.50;;;29.00;72.30;;;;;;5076235;28;20469;-74
2023/06/29 11:14:04;;;;;;;1.50;1.38;;;29.00;74.10;;;;;;5085324;28;20055;-74
2023/06/29 11:16:31;;;;;;;2.90;1.38;;;29.10;75.50;;;;;;5079690;28;20071;-74
2023/06/29 11:19:00;;;;;;;6.75;1.88;;;29.20;74.70;;;;;;5083468;28;20423;-74
2023/06/29 11:21:25;;;;;;;2.40;1.35;;;29.30;72.20;;;;;;5083698;28;20066;-74
2023/06/29 11:23:51;;;;;;;2.88;1.70;;;29.30;72.90;;;;;;5078947;28;20025;-74
2023/06/29 11:26:17;;;;;;;1.45;1.33;;;29.40;72.50;;;;;;5079038;28;20434;-74
2023/06/29 11:28:43;;;;;;;5.07;1.20;;;29.40;73.00;;;;;;5083027;28;20033;-74
2023/06/29 11:31:12;;;;;;;2.80;1.83;;;29.40;72.10;;;;;;5076692;28;20162;-74
2023/06/29 11:33:47;;;;;;;2.67;1.55;;;29.60;74.20;;;;;;5081240;28;20454;-74
2023/06/29 11:36:13;;;;;;;2.58;1.50;;;29.50;69.30;;;;;;5083110;28;20027;-74
2023/06/29 11:38:38;;;;;;;1.48;1.38;;;29.50;70.50;;;;;;5082429;28;20511;-74
2023/06/29 11:41:07;;;;;;;1.85;1.58;;;29.70;72.80;;;;;;5079986;28;20024;-74
2023/06/29 11:43:33;;;;;;;2.35;1.90;;;29.90;71.00;;;;;;5085043;28;20073;-74
2023/06/29 11:46:00;;;;;;;2.05;1.80;;;30.00;70.70;;;;;;5086121;28;20028;-74
2023/06/29 11:48:29;;;;;;;7.32;1.63;;;30.00;66.10;;;;;;5083568;28;20406;-74
2023/06/29 11:50:59;;;;;;;2.67;1.63;;;29.90;67.60;;;;;;5087860;28;20028;-74
2023/06/29 11:53:25;;;;;;;4.15;1.65;;;29.70;65.50;;;;;;5082688;28;20029;-74
2023/06/29 11:55:52;;;;;;;2.50;1.83;;;29.70;67.60;;;;;;5089644;28;20028;-74
2023/06/29 11:58:18;;;;;;;1.85;1.50;;;29.70;65.10;;;;;;5084139;28;20089;-75
2023/06/29 12:00:44;;;;;;;2.08;1.85;;;29.90;65.10;;;;;;5079858;28;20024;-74
2023/06/29 12:03:10;;;;;;;2.25;1.63;;;30.10;67.90;;;;;;5071329;28;20755;-74
2023/06/29 12:05:41;;;;;;;3.80;1.52;;;30.10;64.00;;;;;;5078733;28;20029;-74
2023/06/29 12:08:08;;;;;;;2.60;1.63;;;30.10;62.90;;;;;;5084132;28;20056;-74
2023/06/29 12:10:36;;;;;;;5.50;2.10;;;30.20;63.50;;;;;;5065942;28;20502;-74
2023/06/29 12:13:03;;;;;;;4.07;1.63;;;30.40;66.40;;;;;;5078246;28;20021;-74
2023/06/29 12:15:32;;;;;;;3.08;1.70;;;30.50;64.30;;;;;;5080943;28;20028;-74
2023/06/29 12:18:15;;;;;;;2.13;1.98;;;30.60;65.20;;;;;;5086607;28;20016;-74
2023/06/29 12:20:46;;;;;;;3.17;1.70;;;30.70;60.10;;;;;;5065980;28;20115;-74
2023/06/29 12:23:14;;;;;;;3.50;2.10;;;30.70;60.10;;;;;;5082723;28;20495;-74
2023/06/29 12:25:48;;;;;;;1.98;1.88;;;30.50;59.20;;;;;;5077088;28;20016;-74
2023/06/29 12:28:14;;;;;;;6.53;2.20;;;30.40;60.60;;;;;;5062435;28;20124;-74
2023/06/29 12:30:40;;;;;;;2.25;2.15;;;30.40;61.20;;;;;;5081014;28;20039;-74
2023/06/29 12:33:08;;;;;;;3.13;2.38;;;30.40;60.80;;;;;;5076085;28;20093;-74
2023/06/29 12:35:34;;;;;;;4.55;2.28;;;30.30;62.30;;;;;;5082364;28;20031;-74
2023/06/29 12:38:00;;;;;;;3.75;1.98;;;30.30;63.00;;;;;;5086079;28;20493;-74
2023/06/29 12:40:25;;;;;;;2.53;1.90;;;30.30;63.00;;;;;;5081855;28;20025;-74
2023/06/29 12:42:54;;;;;;;2.85;2.28;;;30.10;61.30;;;;;;5075454;28;20185;-74
2023/06/29 12:45:20;;;;;;;2.40;2.22;;;30.10;63.30;;;;;;5079002;28;20031;-74
2023/06/29 12:47:46;;;;;;;4.55;2.63;;;30.10;62.50;;;;;;5083424;28;20024;-74